Time;durP1;ratioP1;P1;durP2;ratioP2;P2;SDS_P1;SDS_P2;PMS_P1;PMS_P2;Temp;Humidity;BMP_temperature;BMP_pressure;BME280_temperature;BME280_humidity;BME280_pressure;Samples;Min_cycle;Max_cycle;Signal;HPM_P1;HPM_P2
2023/09/07 00:01:52;;;;;;;7.87;5.00;;;18.30;72.70;;;;;;5050761;28;20229;-69
2023/09/07 00:04:19;;;;;;;9.83;5.50;;;18.20;72.90;;;;;;5053065;28;20195;-71
2023/09/07 00:06:44;;;;;;;8.33;5.30;;;18.10;73.50;;;;;;5052634;28;20502;-68
2023/09/07 00:09:11;;;;;;;7.37;5.40;;;18.10;73.60;;;;;;5054099;28;20979;-71
2023/09/07 00:11:37;;;;;;;8.03;5.10;;;18.10;73.50;;;;;;5053105;28;20211;-68
2023/09/07 00:14:03;;;;;;;8.33;4.80;;;18.00;73.70;;;;;;5055617;28;20416;-69
2023/09/07 00:16:34;;;;;;;6.13;4.50;;;17.90;73.70;;;;;;5053834;28;20467;-70
2023/09/07 00:18:59;;;;;;;7.83;5.40;;;17.80;74.00;;;;;;5055113;28;20202;-71
2023/09/07 00:21:25;;;;;;;11.57;5.37;;;17.90;74.30;;;;;;5051715;28;20466;-69
2023/09/07 00:26:26;;;;;;;7.97;5.00;;;17.90;74.30;;;;;;5160881;23;20258;-72
2023/09/07 00:28:51;;;;;;;8.00;5.20;;;17.80;74.30;;;;;;4988844;28;20828;-72
2023/09/07 00:31:17;;;;;;;9.47;4.50;;;17.80;74.20;;;;;;4992304;28;20193;-72
2023/09/07 00:33:42;;;;;;;9.40;5.33;;;17.70;74.50;;;;;;4992480;28;20190;-73
2023/09/07 00:36:08;;;;;;;9.63;4.77;;;17.80;74.50;;;;;;4986740;28;20219;-71
2023/09/07 00:38:33;;;;;;;9.30;4.83;;;17.80;74.50;;;;;;4993061;28;20193;-72
2023/09/07 00:40:59;;;;;;;7.10;4.53;;;17.70;74.60;;;;;;4993459;28;20187;-72
2023/09/07 00:43:25;;;;;;;7.57;5.20;;;17.70;74.80;;;;;;4992562;28;20179;-72
2023/09/07 00:45:50;;;;;;;7.40;5.40;;;17.60;75.20;;;;;;4990388;28;20587;-73
2023/09/07 00:48:16;;;;;;;6.80;4.57;;;17.60;75.20;;;;;;4993276;28;20203;-72
2023/09/07 00:50:43;;;;;;;8.23;5.37;;;17.60;75.20;;;;;;4992984;28;20670;-72
2023/09/07 00:53:10;;;;;;;6.97;4.97;;;17.60;75.10;;;;;;4986740;28;20254;-72
2023/09/07 00:55:37;;;;;;;6.87;4.83;;;17.50;75.70;;;;;;4983750;28;20859;-74
2023/09/07 00:58:06;;;;;;;11.80;6.10;;;17.40;75.80;;;;;;4986917;28;20898;-72
2023/09/07 01:00:33;;;;;;;8.40;4.67;;;17.40;75.80;;;;;;4988994;28;20894;-72
2023/09/07 01:02:59;;;;;;;7.60;4.97;;;17.40;76.10;;;;;;4987727;28;20462;-73
2023/09/07 01:05:34;;;;;;;6.83;4.87;;;17.50;76.10;;;;;;4989990;28;20469;-72
2023/09/07 01:08:18;;;;;;;7.10;4.77;;;17.50;75.50;;;;;;4981056;28;20449;-74
2023/09/07 01:10:44;;;;;;;7.07;4.93;;;17.50;75.50;;;;;;4986751;28;20451;-73
2023/09/07 01:13:09;;;;;;;10.93;6.10;;;17.30;75.90;;;;;;4992687;28;20426;-73
2023/09/07 01:15:36;;;;;;;12.97;5.40;;;17.20;76.20;;;;;;4990181;28;20202;-72
2023/09/07 01:18:02;;;;;;;7.27;5.03;;;17.10;76.70;;;;;;4982961;28;20249;-72
2023/09/07 01:20:29;;;;;;;8.63;4.90;;;17.00;77.00;;;;;;4990800;28;20429;-73
2023/09/07 01:22:56;;;;;;;5.13;4.50;;;17.00;77.30;;;;;;4993743;28;20452;-72
2023/09/07 01:25:21;;;;;;;8.37;5.20;;;17.00;77.30;;;;;;4984857;28;20521;-73
2023/09/07 01:27:49;;;;;;;9.00;5.17;;;17.00;77.40;;;;;;4987956;28;20454;-74
2023/09/07 01:30:17;;;;;;;9.80;5.50;;;16.90;77.70;;;;;;4992451;28;20990;-73
2023/09/07 01:32:43;;;;;;;9.70;6.50;;;16.90;77.70;;;;;;4988961;28;20469;-72
2023/09/07 01:35:11;;;;;;;13.63;6.87;;;16.90;78.00;;;;;;4987939;28;21003;-72
2023/09/07 01:37:36;;;;;;;11.30;6.53;;;16.90;78.00;;;;;;4981875;28;20229;-73
2023/09/07 01:40:07;;;;;;;11.23;6.20;;;16.90;77.80;;;;;;4993921;28;20429;-72
2023/09/07 01:42:33;;;;;;;7.07;5.30;;;16.90;77.70;;;;;;4996124;28;20214;-73
2023/09/07 01:44:58;;;;;;;8.50;5.10;;;16.90;78.00;;;;;;4990355;28;20457;-73
2023/09/07 01:47:24;;;;;;;7.67;4.97;;;16.90;77.80;;;;;;4987354;28;20466;-73
2023/09/07 01:49:50;;;;;;;9.53;4.80;;;17.00;77.70;;;;;;4985293;28;20439;-72
2023/09/07 01:52:15;;;;;;;8.47;4.87;;;17.00;77.60;;;;;;4990880;28;20190;-73
2023/09/07 01:54:41;;;;;;;9.87;4.90;;;17.10;77.10;;;;;;4988793;28;20294;-75
2023/09/07 01:57:06;;;;;;;8.17;5.60;;;17.10;76.70;;;;;;4985456;28;20243;-72
2023/09/07 01:59:32;;;;;;;10.00;5.40;;;17.00;77.00;;;;;;4991795;28;20197;-72
2023/09/07 02:01:57;;;;;;;8.17;4.90;;;17.00;77.10;;;;;;4991945;28;20190;-71
2023/09/07 02:04:23;;;;;;;7.80;5.10;;;17.00;77.30;;;;;;4988898;28;20183;-72
2023/09/07 02:06:49;;;;;;;8.10;5.63;;;17.00;77.60;;;;;;4986848;28;20194;-73
2023/09/07 02:09:14;;;;;;;6.57;4.83;;;17.00;77.60;;;;;;4962836;28;20278;-73
2023/09/07 02:11:40;;;;;;;7.97;5.00;;;17.00;77.60;;;;;;4993641;28;20580;-72
2023/09/07 02:14:06;;;;;;;11.03;5.33;;;17.00;77.10;;;;;;4984794;28;20183;-73
2023/09/07 02:16:32;;;;;;;7.97;4.93;;;16.90;77.30;;;;;;4988680;28;20492;-72
2023/09/07 02:19:09;;;;;;;7.67;4.47;;;16.80;77.70;;;;;;4981896;28;20645;-72
2023/09/07 02:21:34;;;;;;;12.47;5.70;;;16.80;77.70;;;;;;4986264;28;20929;-72
2023/09/07 02:24:00;;;;;;;8.47;5.57;;;16.80;77.80;;;;;;4990697;28;20469;-72
2023/09/07 02:26:26;;;;;;;9.73;5.67;;;16.70;78.10;;;;;;4986220;28;20207;-73
2023/09/07 02:28:51;;;;;;;6.70;4.90;;;16.60;78.40;;;;;;4988099;28;20686;-72
2023/09/07 02:31:17;;;;;;;7.47;5.37;;;16.60;78.60;;;;;;4993934;28;20179;-74
2023/09/07 02:33:42;;;;;;;7.73;4.90;;;16.50;78.90;;;;;;4991327;28;20226;-74
2023/09/07 02:36:08;;;;;;;6.33;5.00;;;16.50;79.20;;;;;;4986234;28;20674;-73
2023/09/07 02:38:33;;;;;;;7.00;5.50;;;16.40;79.30;;;;;;4986830;28;20589;-72
2023/09/07 02:40:59;;;;;;;7.93;5.33;;;16.40;79.60;;;;;;4993064;28;20713;-75
2023/09/07 02:43:25;;;;;;;8.30;5.20;;;16.50;79.50;;;;;;4994519;28;20599;-73
2023/09/07 02:45:50;;;;;;;9.53;5.73;;;16.40;79.50;;;;;;4989939;28;20235;-73
2023/09/07 02:48:16;;;;;;;8.57;5.43;;;16.40;79.30;;;;;;4985579;28;20187;-72
2023/09/07 02:50:42;;;;;;;8.80;5.23;;;16.50;79.20;;;;;;4980899;28;20677;-73
2023/09/07 02:53:08;;;;;;;7.23;5.40;;;16.60;78.70;;;;;;4986941;28;20197;-74
2023/09/07 02:55:34;;;;;;;8.40;5.70;;;16.60;78.70;;;;;;4978680;28;20490;-73
2023/09/07 02:58:03;;;;;;;8.37;5.33;;;16.50;78.70;;;;;;4987405;28;20652;-72
2023/09/07 03:00:28;;;;;;;10.30;5.70;;;16.40;78.90;;;;;;4984842;28;20445;-73
2023/09/07 03:02:54;;;;;;;14.00;5.47;;;16.40;79.00;;;;;;4987836;28;20462;-73
2023/09/07 03:05:20;;;;;;;8.23;5.47;;;16.40;79.30;;;;;;4983949;28;20304;-72
2023/09/07 03:07:47;;;;;;;9.00;5.10;;;16.30;79.50;;;;;;4988822;28;20190;-73
2023/09/07 03:10:13;;;;;;;6.57;5.10;;;16.30;79.50;;;;;;4991670;28;20186;-72
2023/09/07 03:12:39;;;;;;;7.30;4.90;;;16.40;79.20;;;;;;4986604;28;20488;-72
2023/09/07 03:15:05;;;;;;;8.63;6.03;;;16.50;78.90;;;;;;4989481;28;20957;-74
2023/09/07 03:17:30;;;;;;;9.03;5.27;;;16.40;79.00;;;;;;4992538;28;20245;-74
2023/09/07 03:19:56;;;;;;;7.93;5.53;;;16.30;79.20;;;;;;4987796;28;20429;-74
2023/09/07 03:22:23;;;;;;;11.40;5.40;;;16.30;79.50;;;;;;4990412;28;20174;-71
2023/09/07 03:24:50;;;;;;;8.47;5.47;;;16.30;79.30;;;;;;4978563;28;20214;-71
2023/09/07 03:27:16;;;;;;;8.13;5.80;;;16.10;79.60;;;;;;4983126;28;20493;-72
2023/09/07 03:29:41;;;;;;;8.57;5.07;;;16.10;80.00;;;;;;4982046;28;20453;-74
2023/09/07 03:32:08;;;;;;;10.43;5.77;;;16.10;80.50;;;;;;4993757;28;20252;-71
2023/09/07 03:34:34;;;;;;;8.17;5.23;;;16.20;79.90;;;;;;4989112;28;20252;-73
2023/09/07 03:36:59;;;;;;;7.83;5.37;;;16.20;79.60;;;;;;4991283;28;20576;-74
2023/09/07 03:39:25;;;;;;;8.97;5.47;;;16.10;79.90;;;;;;4992424;28;20190;-73
2023/09/07 03:41:52;;;;;;;9.33;5.63;;;16.00;80.20;;;;;;4997667;28;20264;-73
2023/09/07 03:44:17;;;;;;;7.90;5.80;;;16.00;80.50;;;;;;4998711;28;20189;-73
2023/09/07 03:46:43;;;;;;;10.17;6.37;;;16.00;80.60;;;;;;4984221;28;20462;-73
2023/09/07 03:49:08;;;;;;;8.20;5.80;;;16.00;80.80;;;;;;4984273;28;20228;-73
2023/09/07 03:51:34;;;;;;;9.53;5.93;;;16.10;80.60;;;;;;4990231;28;20224;-73
2023/09/07 03:53:59;;;;;;;12.70;6.00;;;16.10;80.50;;;;;;4996371;28;20229;-74
2023/09/07 03:56:26;;;;;;;7.23;5.27;;;16.10;79.90;;;;;;4987310;28;20230;-74
2023/09/07 03:58:51;;;;;;;8.37;5.23;;;15.90;79.90;;;;;;4993167;28;20209;-74
2023/09/07 04:01:17;;;;;;;10.23;5.90;;;15.80;80.20;;;;;;4995975;28;20756;-74
2023/09/07 04:03:42;;;;;;;12.00;5.90;;;15.80;80.50;;;;;;4994175;28;20187;-74
2023/09/07 04:06:08;;;;;;;7.80;5.40;;;15.60;80.80;;;;;;4984644;28;20224;-72
2023/09/07 04:08:33;;;;;;;13.90;5.73;;;15.50;81.40;;;;;;4992275;28;20640;-73
2023/09/07 04:11:06;;;;;;;9.43;5.83;;;15.50;81.50;;;;;;4991972;28;20191;-74
2023/09/07 04:13:32;;;;;;;13.07;6.30;;;15.40;81.70;;;;;;4974780;28;20316;-72
2023/09/07 04:15:57;;;;;;;10.40;5.53;;;15.40;81.90;;;;;;4989050;28;20556;-73
2023/09/07 04:18:23;;;;;;;9.67;5.90;;;15.40;82.20;;;;;;4989692;28;21020;-72
2023/09/07 04:20:49;;;;;;;9.90;6.40;;;15.50;82.10;;;;;;4992340;28;20197;-72
2023/09/07 04:23:14;;;;;;;9.67;5.60;;;15.50;81.70;;;;;;4987799;28;20227;-73
2023/09/07 04:25:40;;;;;;;8.90;5.70;;;15.50;81.70;;;;;;4987537;28;20248;-72
2023/09/07 04:28:06;;;;;;;8.00;5.40;;;15.50;81.70;;;;;;4986555;28;20199;-73
2023/09/07 04:30:33;;;;;;;15.40;5.90;;;15.40;81.70;;;;;;4992835;28;20193;-72
2023/09/07 04:32:58;;;;;;;10.13;6.30;;;15.40;81.80;;;;;;4987612;28;20422;-73
2023/09/07 04:35:30;;;;;;;11.13;5.67;;;15.40;82.10;;;;;;4987573;28;20457;-73
2023/09/07 04:37:56;;;;;;;11.10;6.60;;;15.40;82.20;;;;;;4984666;28;20218;-73
2023/09/07 04:40:23;;;;;;;10.00;6.70;;;15.40;82.20;;;;;;4987988;28;20983;-72
2023/09/07 04:42:49;;;;;;;9.63;6.17;;;15.40;82.20;;;;;;4988516;28;20651;-71
2023/09/07 04:45:15;;;;;;;9.60;6.40;;;15.40;82.40;;;;;;4990485;28;20458;-73
2023/09/07 04:47:40;;;;;;;8.17;5.80;;;15.40;82.20;;;;;;4987469;28;20190;-71
2023/09/07 04:50:06;;;;;;;10.33;6.40;;;15.40;82.20;;;;;;4990468;28;20280;-72
2023/09/07 04:52:32;;;;;;;10.20;6.33;;;15.50;82.40;;;;;;4994570;28;20599;-71
2023/09/07 04:54:58;;;;;;;10.20;6.00;;;15.50;82.20;;;;;;4988859;28;20450;-70
2023/09/07 04:57:23;;;;;;;9.50;5.87;;;15.50;82.20;;;;;;4985755;28;20476;-72
2023/09/07 04:59:49;;;;;;;10.03;6.27;;;15.60;82.10;;;;;;4987149;28;20241;-73
2023/09/07 05:02:15;;;;;;;10.27;6.33;;;15.60;82.20;;;;;;4991703;28;20193;-72
2023/09/07 05:04:40;;;;;;;8.33;6.13;;;15.60;81.80;;;;;;4988374;28;20191;-70
2023/09/07 05:07:06;;;;;;;10.00;6.40;;;15.60;81.40;;;;;;4990340;28;20213;-72
2023/09/07 05:09:33;;;;;;;8.73;5.77;;;15.60;81.40;;;;;;4983796;28;20190;-72
2023/09/07 05:11:58;;;;;;;13.70;6.90;;;15.60;81.40;;;;;;4989869;28;20225;-72
2023/09/07 05:14:25;;;;;;;11.60;6.43;;;15.60;81.40;;;;;;4990083;28;20448;-71
2023/09/07 05:16:50;;;;;;;11.30;6.60;;;15.60;81.50;;;;;;4981138;28;20233;-70
2023/09/07 05:19:16;;;;;;;10.90;6.50;;;15.70;81.10;;;;;;4990165;28;20434;-72
2023/09/07 05:21:42;;;;;;;9.93;6.40;;;15.60;80.80;;;;;;4990986;28;20247;-72
2023/09/07 05:24:08;;;;;;;9.83;6.30;;;15.60;81.20;;;;;;4992512;28;20186;-72
2023/09/07 05:26:33;;;;;;;8.50;5.63;;;15.60;81.20;;;;;;4982484;28;20694;-72
2023/09/07 05:28:59;;;;;;;10.87;6.60;;;15.70;81.10;;;;;;4988107;28;20849;-72
2023/09/07 05:31:24;;;;;;;12.60;5.87;;;15.70;80.90;;;;;;4991598;28;20269;-70
2023/09/07 05:33:51;;;;;;;9.90;6.70;;;15.70;81.10;;;;;;4988616;28;20186;-71
2023/09/07 05:36:17;;;;;;;11.80;6.47;;;15.70;81.10;;;;;;4989925;28;20215;-71
2023/09/07 05:38:43;;;;;;;10.37;6.40;;;15.80;81.10;;;;;;4993177;28;20430;-70
2023/09/07 05:41:08;;;;;;;11.87;6.90;;;15.80;81.20;;;;;;4992874;28;20554;-71
2023/09/07 05:43:34;;;;;;;14.90;6.77;;;15.80;80.80;;;;;;4992383;28;20182;-72
2023/09/07 05:45:59;;;;;;;11.50;6.33;;;15.90;80.60;;;;;;4989587;28;20217;-72
2023/09/07 05:48:25;;;;;;;17.97;6.90;;;15.90;80.20;;;;;;4989817;28;20304;-71
2023/09/07 05:50:51;;;;;;;20.20;7.07;;;15.90;80.30;;;;;;4987700;28;20185;-72
2023/09/07 05:53:19;;;;;;;31.23;8.40;;;15.90;80.50;;;;;;4988367;28;20198;-70
2023/09/07 05:55:44;;;;;;;12.20;7.40;;;15.90;80.60;;;;;;4988171;28;20209;-71
2023/09/07 05:58:10;;;;;;;13.43;7.00;;;15.80;80.80;;;;;;4983525;28;20465;-71
2023/09/07 06:00:37;;;;;;;11.90;6.40;;;15.70;81.10;;;;;;4993143;28;20179;-72
2023/09/07 06:03:03;;;;;;;12.50;7.30;;;15.70;81.20;;;;;;4990019;28;20228;-71
2023/09/07 06:05:28;;;;;;;19.13;7.33;;;15.60;81.20;;;;;;4990159;28;20444;-72
2023/09/07 06:07:54;;;;;;;13.53;7.87;;;15.70;81.40;;;;;;4979820;28;20969;-71
2023/09/07 06:10:20;;;;;;;18.60;7.70;;;15.70;81.40;;;;;;4983509;28;20221;-71
2023/09/07 06:12:45;;;;;;;11.60;7.73;;;15.80;81.20;;;;;;4990752;28;20197;-73
2023/09/07 06:15:11;;;;;;;15.23;8.80;;;15.90;80.80;;;;;;4985718;28;20214;-71
2023/09/07 06:17:37;;;;;;;11.53;6.90;;;15.90;80.60;;;;;;4982023;28;20358;-72
2023/09/07 06:20:03;;;;;;;16.13;7.03;;;15.90;80.90;;;;;;4993043;28;20202;-72
2023/09/07 06:22:28;;;;;;;11.80;7.00;;;16.00;80.90;;;;;;4992055;28;20183;-71
2023/09/07 06:24:54;;;;;;;14.73;7.93;;;16.10;80.50;;;;;;4988962;28;20468;-73
2023/09/07 06:27:20;;;;;;;13.33;8.27;;;16.10;80.20;;;;;;4976866;28;20655;-72
2023/09/07 06:29:45;;;;;;;12.00;7.80;;;16.30;80.00;;;;;;4990567;28;20243;-72
2023/09/07 06:32:11;;;;;;;13.37;8.50;;;16.30;79.90;;;;;;4990865;28;20564;-72
2023/09/07 06:34:36;;;;;;;11.93;7.20;;;16.30;79.90;;;;;;4988592;28;20190;-71
2023/09/07 06:37:02;;;;;;;12.50;8.03;;;16.40;79.70;;;;;;4980250;28;20627;-73
2023/09/07 06:39:28;;;;;;;12.23;7.60;;;16.50;79.60;;;;;;4987370;28;20211;-72
2023/09/07 06:41:53;;;;;;;13.03;7.80;;;16.40;79.70;;;;;;4991475;28;20191;-73
2023/09/07 06:44:19;;;;;;;14.30;8.17;;;16.50;79.70;;;;;;4989641;28;20245;-72
2023/09/07 06:46:45;;;;;;;11.20;7.33;;;16.60;79.60;;;;;;4984099;28;20213;-72
2023/09/07 06:49:10;;;;;;;13.40;8.30;;;16.60;79.70;;;;;;4989425;28;20222;-72
2023/09/07 06:51:36;;;;;;;17.37;9.27;;;16.70;79.70;;;;;;4986729;28;20531;-72
2023/09/07 06:54:02;;;;;;;14.27;8.47;;;16.80;79.60;;;;;;4987465;28;20213;-72
2023/09/07 06:56:28;;;;;;;15.53;9.00;;;16.80;79.60;;;;;;4983412;28;20212;-72
2023/09/07 06:58:54;;;;;;;14.63;8.70;;;16.90;79.60;;;;;;4987142;28;20198;-72
2023/09/07 07:01:20;;;;;;;18.50;9.40;;;17.00;79.60;;;;;;4991106;28;20414;-73
2023/09/07 07:03:46;;;;;;;17.17;8.80;;;17.10;79.60;;;;;;4986240;28;20474;-71
2023/09/07 07:06:11;;;;;;;23.60;10.77;;;17.10;79.50;;;;;;4984760;28;20296;-72
2023/09/07 07:08:37;;;;;;;19.50;9.80;;;17.10;79.50;;;;;;4984566;28;20804;-72
2023/09/07 07:11:03;;;;;;;16.07;10.00;;;17.20;79.50;;;;;;4991510;28;20183;-70
2023/09/07 07:13:29;;;;;;;17.43;11.37;;;17.20;79.30;;;;;;4990768;28;20555;-73
2023/09/07 07:15:54;;;;;;;17.73;9.80;;;17.30;79.30;;;;;;4987656;28;20215;-71
2023/09/07 07:18:20;;;;;;;18.30;10.20;;;17.40;79.00;;;;;;4983033;28;20887;-71
2023/09/07 07:20:46;;;;;;;18.30;10.97;;;17.50;78.60;;;;;;4989984;28;20211;-75
2023/09/07 07:23:15;;;;;;;21.33;11.40;;;17.60;78.40;;;;;;4990063;28;20724;-72
2023/09/07 07:25:40;;;;;;;20.00;9.50;;;17.70;78.00;;;;;;4987295;28;20226;-71
2023/09/07 07:28:07;;;;;;;19.50;10.40;;;17.80;77.60;;;;;;4983110;28;20870;-73
2023/09/07 07:30:38;;;;;;;18.33;10.40;;;17.90;77.10;;;;;;4992349;28;20184;-72
2023/09/07 07:33:04;;;;;;;18.50;10.43;;;18.00;77.00;;;;;;4995884;28;20523;-72
2023/09/07 07:35:30;;;;;;;19.33;10.47;;;18.10;76.80;;;;;;4984873;28;20909;-72
2023/09/07 07:37:56;;;;;;;21.63;10.70;;;18.30;76.80;;;;;;4982771;28;20472;-72
2023/09/07 07:40:22;;;;;;;17.60;9.87;;;18.40;76.50;;;;;;4989705;28;20978;-72
2023/09/07 07:42:48;;;;;;;17.90;9.00;;;18.50;76.20;;;;;;4987987;28;20329;-73
2023/09/07 07:45:14;;;;;;;18.97;9.53;;;18.60;75.90;;;;;;4985993;28;20300;-71
2023/09/07 07:47:41;;;;;;;17.33;10.13;;;18.70;75.50;;;;;;4982985;28;20507;-71
2023/09/07 07:50:07;;;;;;;13.90;9.13;;;18.80;74.90;;;;;;4986526;28;20426;-72
2023/09/07 07:52:32;;;;;;;19.20;10.50;;;19.00;74.80;;;;;;4988687;28;20437;-72
2023/09/07 07:54:58;;;;;;;16.60;9.93;;;19.00;73.90;;;;;;4981632;28;20462;-71
2023/09/07 07:57:23;;;;;;;14.53;8.73;;;19.10;73.90;;;;;;4977197;28;20235;-73
2023/09/07 07:59:49;;;;;;;16.13;9.67;;;19.30;73.60;;;;;;4991271;28;20187;-72
2023/09/07 08:02:14;;;;;;;13.80;8.50;;;19.50;72.40;;;;;;4990524;28;20186;-72
2023/09/07 08:04:41;;;;;;;12.10;7.87;;;19.60;71.40;;;;;;4987163;28;20191;-73
2023/09/07 08:07:08;;;;;;;12.77;7.77;;;19.70;71.00;;;;;;4982798;28;20195;-71
2023/09/07 08:09:34;;;;;;;10.20;7.53;;;19.80;70.70;;;;;;4991000;28;20941;-72
2023/09/07 08:12:02;;;;;;;12.10;8.17;;;20.00;70.20;;;;;;4990546;28;20512;-72
2023/09/07 08:14:28;;;;;;;10.97;7.60;;;20.00;69.90;;;;;;4988882;28;20947;-73
2023/09/07 08:16:54;;;;;;;10.73;7.90;;;20.20;69.20;;;;;;4986865;28;20471;-71
2023/09/07 08:19:20;;;;;;;15.50;8.77;;;20.40;68.80;;;;;;4990515;28;20458;-72
2023/09/07 08:21:46;;;;;;;13.63;8.20;;;20.50;68.50;;;;;;4990120;28;20235;-71
2023/09/07 08:24:12;;;;;;;11.10;8.30;;;20.50;68.30;;;;;;4988929;28;20203;-72
2023/09/07 08:26:38;;;;;;;11.33;7.70;;;20.50;68.20;;;;;;4988489;28;20460;-72
2023/09/07 08:29:05;;;;;;;12.90;7.77;;;20.60;68.20;;;;;;4983798;28;20443;-73
2023/09/07 08:31:34;;;;;;;11.37;7.80;;;20.70;68.00;;;;;;4992381;28;20471;-71
2023/09/07 08:34:09;;;;;;;11.03;7.47;;;20.70;67.70;;;;;;4989044;28;20570;-71
2023/09/07 08:36:34;;;;;;;11.17;7.70;;;20.80;67.50;;;;;;4993338;28;20474;-71
2023/09/07 08:39:05;;;;;;;10.67;7.13;;;20.90;67.50;;;;;;4989073;28;20460;-73
2023/09/07 08:41:37;;;;;;;13.73;8.20;;;21.00;67.00;;;;;;4977227;28;21030;-71
2023/09/07 08:44:06;;;;;;;16.07;7.87;;;21.10;66.90;;;;;;4986371;28;20502;-73
2023/09/07 08:46:33;;;;;;;10.20;7.07;;;21.20;66.70;;;;;;4988049;28;20492;-72
2023/09/07 08:49:01;;;;;;;11.27;7.23;;;21.20;66.40;;;;;;4985835;28;20424;-71
2023/09/07 08:51:31;;;;;;;11.57;7.50;;;21.30;66.40;;;;;;4987561;28;20470;-72
2023/09/07 08:53:57;;;;;;;10.10;7.23;;;21.30;66.40;;;;;;4991855;28;20950;-72
2023/09/07 08:56:23;;;;;;;12.23;7.97;;;21.40;66.40;;;;;;4981278;28;20457;-71
2023/09/07 08:58:49;;;;;;;13.67;9.10;;;21.50;66.10;;;;;;4988623;28;20984;-71
2023/09/07 09:01:15;;;;;;;14.33;8.80;;;21.50;66.00;;;;;;4992272;28;20420;-72
2023/09/07 09:03:45;;;;;;;12.90;8.27;;;21.50;66.00;;;;;;4993016;28;20640;-72
2023/09/07 09:06:12;;;;;;;11.93;7.70;;;21.60;66.10;;;;;;4983196;28;20955;-71
2023/09/07 09:08:54;;;;;;;12.40;8.80;;;21.60;66.00;;;;;;4991172;28;20428;-72
2023/09/07 09:11:21;;;;;;;11.60;7.70;;;21.70;65.80;;;;;;4992702;28;20409;-71
2023/09/07 09:13:47;;;;;;;15.20;8.20;;;21.80;65.80;;;;;;4993856;28;20512;-72
2023/09/07 09:16:13;;;;;;;12.23;8.30;;;21.90;65.70;;;;;;4984518;28;20480;-72
2023/09/07 09:18:59;;;;;;;12.70;8.73;;;22.00;65.70;;;;;;4988139;28;20459;-72
2023/09/07 09:21:26;;;;;;;13.37;7.57;;;22.20;65.40;;;;;;4995338;28;20449;-72
2023/09/07 09:23:54;;;;;;;11.33;7.67;;;22.20;65.00;;;;;;4993372;28;20424;-70
2023/09/07 09:26:20;;;;;;;11.17;7.93;;;22.30;64.80;;;;;;4984193;28;20463;-72
2023/09/07 09:28:46;;;;;;;15.10;8.60;;;22.50;64.50;;;;;;4987591;28;20558;-72
2023/09/07 09:31:12;;;;;;;13.67;8.97;;;22.60;64.10;;;;;;4993074;28;20269;-72
2023/09/07 09:33:39;;;;;;;13.33;8.63;;;22.80;63.90;;;;;;4996540;28;20241;-72
2023/09/07 09:36:06;;;;;;;9.60;7.53;;;22.80;63.70;;;;;;4984528;28;20456;-71
2023/09/07 09:38:32;;;;;;;11.13;7.60;;;22.80;63.90;;;;;;4989177;28;20978;-71
2023/09/07 09:41:00;;;;;;;10.27;8.07;;;22.90;63.80;;;;;;4985836;28;20424;-71
2023/09/07 09:43:26;;;;;;;12.17;8.63;;;22.90;63.70;;;;;;4992468;28;20512;-71
2023/09/07 09:45:52;;;;;;;12.73;7.73;;;22.90;63.70;;;;;;4983549;28;21031;-71
2023/09/07 09:48:22;;;;;;;11.50;8.83;;;22.90;63.70;;;;;;4982480;28;20418;-72
2023/09/07 09:50:49;;;;;;;11.17;8.60;;;23.00;63.50;;;;;;4993010;28;20409;-72
2023/09/07 09:53:20;;;;;;;10.60;7.07;;;23.10;63.40;;;;;;4993248;28;20433;-72
2023/09/07 09:55:49;;;;;;;12.57;8.33;;;23.10;63.40;;;;;;4988666;28;20471;-73
2023/09/07 09:58:16;;;;;;;13.03;7.83;;;23.30;63.20;;;;;;4980741;28;20464;-71
2023/09/07 10:00:48;;;;;;;9.47;7.17;;;23.40;63.20;;;;;;4989530;28;20417;-71
2023/09/07 10:03:31;;;;;;;14.47;8.50;;;23.60;62.80;;;;;;4989703;28;20453;-71
2023/09/07 10:06:10;;;;;;;12.53;8.00;;;23.70;62.60;;;;;;4986882;28;20463;-71
2023/09/07 10:08:36;;;;;;;10.70;7.43;;;23.60;62.90;;;;;;4982496;28;21014;-71
2023/09/07 10:11:09;;;;;;;11.17;8.40;;;23.60;62.80;;;;;;4983686;28;20541;-72
2023/09/07 10:13:35;;;;;;;9.73;7.43;;;23.70;62.60;;;;;;4989300;28;20918;-71
2023/09/07 10:16:08;;;;;;;10.97;8.33;;;23.70;62.60;;;;;;4980093;28;20476;-73
2023/09/07 10:18:36;;;;;;;14.47;8.70;;;23.70;62.50;;;;;;4988140;28;20658;-72
2023/09/07 10:21:02;;;;;;;12.93;9.30;;;23.70;62.50;;;;;;4985108;28;20537;-73
2023/09/07 10:23:36;;;;;;;11.80;8.93;;;23.80;62.20;;;;;;4986299;28;20875;-71
2023/09/07 10:26:04;;;;;;;12.37;8.17;;;23.80;62.20;;;;;;4981888;28;20492;-70
2023/09/07 10:28:30;;;;;;;14.77;8.50;;;23.90;62.20;;;;;;4982997;28;20557;-72
2023/09/07 10:31:07;;;;;;;14.90;9.50;;;23.90;62.30;;;;;;4988139;28;20509;-72
2023/09/07 10:33:34;;;;;;;12.73;9.50;;;24.00;62.00;;;;;;4990657;28;20732;-72
2023/09/07 10:36:01;;;;;;;14.97;9.73;;;24.00;62.20;;;;;;4987347;28;20466;-72
2023/09/07 10:38:27;;;;;;;13.90;9.20;;;24.00;62.20;;;;;;4989137;28;20487;-72
2023/09/07 10:41:01;;;;;;;13.27;8.70;;;24.20;62.00;;;;;;4990388;28;20522;-72
2023/09/07 10:43:31;;;;;;;13.63;9.80;;;24.10;62.00;;;;;;4991536;28;20441;-73
2023/09/07 10:45:58;;;;;;;18.57;9.43;;;24.20;61.70;;;;;;4985205;28;20483;-71
2023/09/07 10:48:25;;;;;;;12.10;9.10;;;24.40;61.60;;;;;;4987261;28;20948;-72
2023/09/07 10:50:51;;;;;;;11.80;8.97;;;24.60;61.30;;;;;;4989106;28;20432;-71
2023/09/07 10:53:27;;;;;;;14.70;9.83;;;25.00;60.90;;;;;;4988153;28;20426;-72
2023/09/07 10:55:53;;;;;;;16.23;8.90;;;25.00;60.70;;;;;;4987427;28;20832;-73
2023/09/07 10:58:31;;;;;;;11.73;8.10;;;25.10;61.20;;;;;;4983414;28;20843;-73
2023/09/07 11:00:57;;;;;;;11.20;9.33;;;25.60;60.40;;;;;;4989209;28;21043;-73
2023/09/07 11:03:27;;;;;;;15.87;9.57;;;25.90;60.30;;;;;;4986787;28;20439;-72
2023/09/07 11:05:57;;;;;;;13.93;9.23;;;25.80;60.90;;;;;;4988451;28;20539;-73
2023/09/07 11:08:23;;;;;;;13.70;8.77;;;26.30;60.40;;;;;;4984703;28;20514;-72
2023/09/07 11:10:51;;;;;;;11.37;8.03;;;26.80;59.90;;;;;;4989847;28;20418;-73
2023/09/07 11:13:17;;;;;;;12.37;9.00;;;26.90;59.50;;;;;;4989698;28;20478;-72
2023/09/07 11:15:43;;;;;;;12.40;8.10;;;26.90;59.50;;;;;;4971831;28;20450;-71
2023/09/07 11:18:09;;;;;;;15.33;8.97;;;27.20;59.10;;;;;;4986038;28;20318;-73
2023/09/07 11:20:36;;;;;;;13.80;9.13;;;27.30;59.20;;;;;;4988786;28;20246;-71
2023/09/07 11:23:03;;;;;;;14.60;9.77;;;27.30;58.50;;;;;;4988341;28;20418;-73
2023/09/07 11:25:36;;;;;;;13.30;9.90;;;26.90;59.60;;;;;;4984492;28;20513;-72
2023/09/07 11:28:03;;;;;;;14.20;8.87;;;27.40;59.10;;;;;;4983971;28;20900;-74
2023/09/07 11:30:29;;;;;;;12.20;9.43;;;27.30;58.90;;;;;;4992238;28;20426;-72
2023/09/07 11:33:05;;;;;;;13.03;9.43;;;27.40;58.80;;;;;;4990197;28;20421;-71
2023/09/07 11:35:31;;;;;;;11.00;8.63;;;27.40;58.80;;;;;;4982388;28;20898;-72
2023/09/07 11:37:56;;;;;;;12.80;8.90;;;27.40;58.70;;;;;;4984030;28;20504;-72
2023/09/07 11:40:22;;;;;;;13.43;9.50;;;27.50;58.80;;;;;;4988776;28;20182;-72
2023/09/07 11:42:48;;;;;;;12.10;9.13;;;27.60;58.40;;;;;;4990720;28;20222;-72
2023/09/07 11:45:14;;;;;;;10.63;8.53;;;27.70;58.40;;;;;;4986175;28;20301;-72
2023/09/07 11:47:39;;;;;;;10.30;8.20;;;27.50;58.40;;;;;;4987535;28;20183;-71
2023/09/07 11:50:09;;;;;;;19.03;8.23;;;27.20;59.30;;;;;;4990691;28;20321;-72
2023/09/07 11:52:34;;;;;;;11.60;8.37;;;27.10;59.20;;;;;;4992757;28;20179;-71
2023/09/07 11:55:00;;;;;;;13.17;8.97;;;27.10;59.30;;;;;;4990084;28;20461;-72
2023/09/07 11:57:25;;;;;;;12.07;8.10;;;27.40;58.90;;;;;;4987576;28;20221;-73
2023/09/07 11:59:51;;;;;;;10.80;8.00;;;27.40;58.90;;;;;;4992394;28;20205;-72
2023/09/07 12:02:17;;;;;;;10.87;8.50;;;27.70;58.50;;;;;;4988529;28;20591;-72
2023/09/07 12:04:43;;;;;;;17.13;9.53;;;28.20;58.00;;;;;;4990729;28;20265;-72
2023/09/07 12:07:10;;;;;;;11.43;8.10;;;28.40;57.20;;;;;;4987760;28;20522;-73
2023/09/07 12:09:36;;;;;;;11.10;9.00;;;28.40;57.20;;;;;;4994821;28;20521;-71
2023/09/07 12:12:02;;;;;;;10.53;8.23;;;28.70;56.60;;;;;;4995011;28;20425;-73
2023/09/07 12:14:28;;;;;;;12.73;8.87;;;28.70;56.80;;;;;;4993350;28;20179;-73
2023/09/07 12:16:54;;;;;;;12.83;8.17;;;29.20;56.00;;;;;;4967528;28;21073;-73
2023/09/07 12:19:19;;;;;;;8.80;7.50;;;29.20;55.30;;;;;;4993192;28;20214;-74
2023/09/07 12:21:45;;;;;;;13.37;8.73;;;29.00;56.20;;;;;;4991873;28;20194;-71
2023/09/07 12:24:12;;;;;;;9.57;6.67;;;28.90;56.00;;;;;;4973058;28;20207;-72
2023/09/07 12:26:38;;;;;;;11.70;8.03;;;28.40;57.00;;;;;;4991324;28;20220;-72
2023/09/07 12:29:04;;;;;;;11.43;7.07;;;28.50;56.40;;;;;;4990721;28;20447;-74
2023/09/07 12:31:31;;;;;;;10.43;6.97;;;28.40;56.90;;;;;;4990127;28;20175;-72
2023/09/07 12:33:57;;;;;;;9.80;6.97;;;28.90;56.00;;;;;;4993363;28;20433;-74
2023/09/07 12:36:22;;;;;;;11.50;7.70;;;29.50;55.20;;;;;;4991348;28;20455;-71
2023/09/07 12:38:49;;;;;;;10.17;7.60;;;29.00;55.00;;;;;;4988884;28;20187;-73
2023/09/07 12:41:15;;;;;;;8.70;7.03;;;29.10;55.80;;;;;;4989349;28;20267;-72